Terminal Aerodrome Forecast
Issued by NWS

Current Version | Previous Version | Text Only | Print | Product List | Glossary On
Versions: 1 2 3 4 5 6 7 8 9 10 11 12 13
254
FTUS42 KMLB 101135
TAFFPR
TAF
KFPR 101135Z 1012/1112 32005KT P6SM BKN060 BKN250
     FM101400 29014G20KT P6SM SCT250
     FM110100 29004KT P6SM SKC=

USA.gov is the U.S. government's official web portal to all federal, state and local government web resources and services.